Terminal Aerodrome Forecast
Issued by NWS

Home | Current Version | Previous Version | Text Only | Print | Product List | Glossary On
Versions: 1 2 3 4 5 6 7 8 9 10 11 12 13 14 15
000
FTUS42 TJSJ 101700
TAFISX
TAF
TISX 101720Z 1018/1118 11014G21KT P6SM FEW030 SCT050
     FM102300 07006KT P6SM VCSH FEW022
     FM111300 11014KT P6SM VCSH SCT020 SCT040=

USA.gov is the U.S. government's official web portal to all federal, state and local government web resources and services.